Addison, Texas
Current Conditions -  °F | °C
As of 3:47 PM on Sunday 25 Jan 2015 (Local Time) from KADS Reporting Station
Clear Clear  
Wind Chill: 63°   Ceiling: Unl
Heat Index: 63°   Visibility: 13mi
Dew Point: 23°   Wind: 18mph
Humidity: 22%   Direction: 310°NW
Pressure: 30.06"   Gusts: 30mph
Location:  32.95°N, 96.82°W
Report Text: KADS 252147Z 31016G26KT 13SM SKC 17/M05 A3006
Loading
Personal Weather Stations






























Interactive Weather Map New forecast layout! Learn more

10-Day Weather Forecast

Advertisements
Track Severe Weather on mobile